Terminal Aerodrome Forecast
Issued by NWS Memphis, TN

Home | Current Version | Previous Version | Text Only | Print | Product List | Glossary On
Versions: 1 2 3 4 5 6 7 8 9 10 11 12 13 14 15 16 17 18 19 20 21 22 23 24 25 26 27 28 29 30 31 32 33 34 35
000
FTUS44 KMEG 032056 AAA
TAFMEM
TAF AMD
KMEM 032056Z 0321/0418 04006KT P6SM OVC035
     FM032300 06003KT P6SM BKN250
     FM041000 05003KT 4SM BR SKC
     FM041300 04005KT P6SM SKC=

USA.gov is the U.S. government's official web portal to all federal, state and local government web resources and services.